sensor_id;sensor_type;location;lat;lon;timestamp;P1;durP1;ratioP1;P2;durP2;ratioP2
61897;SDS011;47850;50.274;18.908;2022-07-23T00:00:05;20.50;;;8.60;;
61897;SDS011;47850;50.274;18.908;2022-07-23T00:02:32;11.80;;;8.60;;
61897;SDS011;47850;50.274;18.908;2022-07-23T00:05:02;14.50;;;9.00;;
61897;SDS011;47850;50.274;18.908;2022-07-23T00:07:29;14.80;;;8.10;;
61897;SDS011;47850;50.274;18.908;2022-07-23T00:09:55;13.10;;;8.50;;
61897;SDS011;47850;50.274;18.908;2022-07-23T00:12:22;19.40;;;9.20;;
61897;SDS011;47850;50.274;18.908;2022-07-23T00:14:48;23.10;;;9.70;;
61897;SDS011;47850;50.274;18.908;2022-07-23T00:17:15;17.80;;;9.30;;
61897;SDS011;47850;50.274;18.908;2022-07-23T00:19:41;19.80;;;9.70;;
61897;SDS011;47850;50.274;18.908;2022-07-23T00:22:08;20.70;;;10.30;;
61897;SDS011;47850;50.274;18.908;2022-07-23T00:24:34;32.40;;;10.80;;
61897;SDS011;47850;50.274;18.908;2022-07-23T00:27:04;21.00;;;10.10;;
61897;SDS011;47850;50.274;18.908;2022-07-23T00:29:31;18.10;;;9.60;;
61897;SDS011;47850;50.274;18.908;2022-07-23T00:31:57;18.30;;;9.80;;
61897;SDS011;47850;50.274;18.908;2022-07-23T00:34:24;21.50;;;9.80;;
61897;SDS011;47850;50.274;18.908;2022-07-23T00:36:50;18.80;;;10.60;;
61897;SDS011;47850;50.274;18.908;2022-07-23T00:39:20;19.20;;;11.50;;
61897;SDS011;47850;50.274;18.908;2022-07-23T00:41:49;25.20;;;11.20;;
61897;SDS011;47850;50.274;18.908;2022-07-23T00:44:20;16.00;;;10.60;;
61897;SDS011;47850;50.274;18.908;2022-07-23T00:46:58;17.60;;;9.50;;
61897;SDS011;47850;50.274;18.908;2022-07-23T00:49:26;19.20;;;10.70;;
61897;SDS011;47850;50.274;18.908;2022-07-23T00:51:54;17.30;;;11.00;;
61897;SDS011;47850;50.274;18.908;2022-07-23T00:54:23;20.50;;;12.00;;
61897;SDS011;47850;50.274;18.908;2022-07-23T00:56:51;22.00;;;13.00;;
61897;SDS011;47850;50.274;18.908;2022-07-23T00:59:18;25.40;;;12.00;;
61897;SDS011;47850;50.274;18.908;2022-07-23T01:01:45;19.00;;;12.00;;
61897;SDS011;47850;50.274;18.908;2022-07-23T01:04:15;20.00;;;13.60;;
61897;SDS011;47850;50.274;18.908;2022-07-23T01:06:42;29.40;;;16.00;;
61897;SDS011;47850;50.274;18.908;2022-07-23T01:09:10;26.90;;;13.60;;
61897;SDS011;47850;50.274;18.908;2022-07-23T01:11:37;18.80;;;13.40;;
61897;SDS011;47850;50.274;18.908;2022-07-23T01:14:08;19.90;;;13.00;;
61897;SDS011;47850;50.274;18.908;2022-07-23T01:16:42;20.20;;;11.70;;
61897;SDS011;47850;50.274;18.908;2022-07-23T01:19:10;22.80;;;11.80;;
61897;SDS011;47850;50.274;18.908;2022-07-23T01:21:38;18.50;;;12.20;;
61897;SDS011;47850;50.274;18.908;2022-07-23T01:24:07;18.60;;;11.90;;
61897;SDS011;47850;50.274;18.908;2022-07-23T01:26:35;16.30;;;11.30;;
61897;SDS011;47850;50.274;18.908;2022-07-23T01:29:02;25.10;;;11.60;;
61897;SDS011;47850;50.274;18.908;2022-07-23T01:31:30;20.90;;;11.90;;
61897;SDS011;47850;50.274;18.908;2022-07-23T01:33:56;21.60;;;11.80;;
61897;SDS011;47850;50.274;18.908;2022-07-23T01:36:23;18.80;;;11.80;;
61897;SDS011;47850;50.274;18.908;2022-07-23T01:38:51;21.40;;;11.60;;
61897;SDS011;47850;50.274;18.908;2022-07-23T01:41:18;18.40;;;11.40;;
61897;SDS011;47850;50.274;18.908;2022-07-23T01:43:44;19.30;;;12.00;;
61897;SDS011;47850;50.274;18.908;2022-07-23T01:46:11;20.80;;;12.80;;
61897;SDS011;47850;50.274;18.908;2022-07-23T01:48:38;28.40;;;12.10;;
61897;SDS011;47850;50.274;18.908;2022-07-23T01:51:05;19.20;;;11.10;;
61897;SDS011;47850;50.274;18.908;2022-07-23T01:53:31;17.00;;;11.50;;
61897;SDS011;47850;50.274;18.908;2022-07-23T01:55:58;21.10;;;11.60;;
61897;SDS011;47850;50.274;18.908;2022-07-23T01:58:25;16.40;;;11.10;;
61897;SDS011;47850;50.274;18.908;2022-07-23T02:00:53;21.50;;;11.50;;
61897;SDS011;47850;50.274;18.908;2022-07-23T02:03:21;24.70;;;12.00;;
61897;SDS011;47850;50.274;18.908;2022-07-23T02:05:48;25.40;;;11.40;;
61897;SDS011;47850;50.274;18.908;2022-07-23T02:08:16;18.30;;;11.20;;
61897;SDS011;47850;50.274;18.908;2022-07-23T02:10:43;18.40;;;11.10;;
61897;SDS011;47850;50.274;18.908;2022-07-23T02:13:10;18.30;;;11.00;;
61897;SDS011;47850;50.274;18.908;2022-07-23T02:15:37;20.80;;;11.20;;
61897;SDS011;47850;50.274;18.908;2022-07-23T02:18:04;17.10;;;10.90;;
61897;SDS011;47850;50.274;18.908;2022-07-23T02:20:30;18.70;;;11.10;;
61897;SDS011;47850;50.274;18.908;2022-07-23T02:22:57;17.80;;;10.70;;
61897;SDS011;47850;50.274;18.908;2022-07-23T02:25:24;13.50;;;10.50;;
61897;SDS011;47850;50.274;18.908;2022-07-23T02:27:50;15.90;;;10.40;;
61897;SDS011;47850;50.274;18.908;2022-07-23T02:30:17;16.00;;;10.50;;
61897;SDS011;47850;50.274;18.908;2022-07-23T02:32:43;20.00;;;11.40;;
61897;SDS011;47850;50.274;18.908;2022-07-23T02:35:10;15.90;;;10.70;;
61897;SDS011;47850;50.274;18.908;2022-07-23T02:37:36;20.50;;;11.60;;
61897;SDS011;47850;50.274;18.908;2022-07-23T02:40:03;20.00;;;11.60;;
61897;SDS011;47850;50.274;18.908;2022-07-23T02:42:30;15.90;;;11.10;;
61897;SDS011;47850;50.274;18.908;2022-07-23T02:44:56;29.70;;;12.60;;
61897;SDS011;47850;50.274;18.908;2022-07-23T02:47:23;22.00;;;12.90;;
61897;SDS011;47850;50.274;18.908;2022-07-23T02:49:49;22.80;;;13.00;;
61897;SDS011;47850;50.274;18.908;2022-07-23T02:52:16;26.20;;;14.10;;
61897;SDS011;47850;50.274;18.908;2022-07-23T02:54:42;47.30;;;21.10;;
61897;SDS011;47850;50.274;18.908;2022-07-23T02:57:09;58.10;;;27.60;;
61897;SDS011;47850;50.274;18.908;2022-07-23T02:59:35;74.90;;;34.30;;
61897;SDS011;47850;50.274;18.908;2022-07-23T03:02:02;74.10;;;34.70;;
61897;SDS011;47850;50.274;18.908;2022-07-23T03:04:29;77.50;;;35.40;;
61897;SDS011;47850;50.274;18.908;2022-07-23T03:06:55;67.10;;;33.70;;
61897;SDS011;47850;50.274;18.908;2022-07-23T03:09:22;77.50;;;34.10;;
61897;SDS011;47850;50.274;18.908;2022-07-23T03:11:48;72.40;;;32.70;;
61897;SDS011;47850;50.274;18.908;2022-07-23T03:14:15;55.40;;;28.20;;
61897;SDS011;47850;50.274;18.908;2022-07-23T03:16:42;59.40;;;29.40;;
61897;SDS011;47850;50.274;18.908;2022-07-23T03:19:09;57.80;;;27.90;;
61897;SDS011;47850;50.274;18.908;2022-07-23T03:21:35;52.40;;;24.90;;
61897;SDS011;47850;50.274;18.908;2022-07-23T03:24:09;57.30;;;26.10;;
61897;SDS011;47850;50.274;18.908;2022-07-23T03:26:36;51.20;;;24.80;;
61897;SDS011;47850;50.274;18.908;2022-07-23T03:29:03;44.20;;;23.20;;
61897;SDS011;47850;50.274;18.908;2022-07-23T03:31:30;36.70;;;22.20;;
61897;SDS011;47850;50.274;18.908;2022-07-23T03:33:59;42.00;;;22.80;;
61897;SDS011;47850;50.274;18.908;2022-07-23T03:36:27;47.70;;;24.70;;
61897;SDS011;47850;50.274;18.908;2022-07-23T03:38:53;44.00;;;21.80;;
61897;SDS011;47850;50.274;18.908;2022-07-23T03:41:20;40.10;;;21.30;;
61897;SDS011;47850;50.274;18.908;2022-07-23T03:43:46;44.80;;;21.80;;
61897;SDS011;47850;50.274;18.908;2022-07-23T03:46:14;42.00;;;20.50;;
61897;SDS011;47850;50.274;18.908;2022-07-23T03:48:40;32.30;;;17.90;;
61897;SDS011;47850;50.274;18.908;2022-07-23T03:51:07;36.60;;;17.30;;
61897;SDS011;47850;50.274;18.908;2022-07-23T03:53:34;28.20;;;16.10;;
61897;SDS011;47850;50.274;18.908;2022-07-23T03:56:00;24.20;;;14.90;;
61897;SDS011;47850;50.274;18.908;2022-07-23T03:58:27;24.90;;;15.40;;
61897;SDS011;47850;50.274;18.908;2022-07-23T04:00:53;30.30;;;14.80;;
61897;SDS011;47850;50.274;18.908;2022-07-23T04:03:20;26.40;;;13.90;;
61897;SDS011;47850;50.274;18.908;2022-07-23T04:05:46;26.30;;;14.20;;
61897;SDS011;47850;50.274;18.908;2022-07-23T04:08:13;26.30;;;14.80;;
61897;SDS011;47850;50.274;18.908;2022-07-23T04:10:39;31.30;;;16.30;;
61897;SDS011;47850;50.274;18.908;2022-07-23T04:13:06;28.60;;;15.70;;
61897;SDS011;47850;50.274;18.908;2022-07-23T04:15:33;25.90;;;15.30;;
61897;SDS011;47850;50.274;18.908;2022-07-23T04:17:59;25.20;;;15.50;;
61897;SDS011;47850;50.274;18.908;2022-07-23T04:20:26;25.40;;;14.80;;
61897;SDS011;47850;50.274;18.908;2022-07-23T04:22:52;34.50;;;16.50;;
61897;SDS011;47850;50.274;18.908;2022-07-23T04:25:19;28.80;;;17.30;;
61897;SDS011;47850;50.274;18.908;2022-07-23T04:27:46;27.90;;;17.20;;
61897;SDS011;47850;50.274;18.908;2022-07-23T04:30:12;29.40;;;16.60;;
61897;SDS011;47850;50.274;18.908;2022-07-23T04:32:39;30.20;;;16.40;;
61897;SDS011;47850;50.274;18.908;2022-07-23T04:35:05;24.10;;;16.00;;
61897;SDS011;47850;50.274;18.908;2022-07-23T04:37:32;30.40;;;16.10;;
61897;SDS011;47850;50.274;18.908;2022-07-23T04:39:59;24.10;;;15.20;;
61897;SDS011;47850;50.274;18.908;2022-07-23T04:42:25;28.50;;;14.20;;
61897;SDS011;47850;50.274;18.908;2022-07-23T04:44:52;27.70;;;14.20;;
61897;SDS011;47850;50.274;18.908;2022-07-23T04:47:18;24.10;;;14.00;;
61897;SDS011;47850;50.274;18.908;2022-07-23T04:49:45;29.20;;;13.90;;
61897;SDS011;47850;50.274;18.908;2022-07-23T04:52:11;27.90;;;14.50;;
61897;SDS011;47850;50.274;18.908;2022-07-23T04:54:38;26.50;;;15.00;;
61897;SDS011;47850;50.274;18.908;2022-07-23T04:57:04;24.90;;;14.70;;
61897;SDS011;47850;50.274;18.908;2022-07-23T04:59:31;36.90;;;15.20;;
61897;SDS011;47850;50.274;18.908;2022-07-23T05:01:57;25.70;;;14.60;;
61897;SDS011;47850;50.274;18.908;2022-07-23T05:04:24;22.80;;;14.70;;
61897;SDS011;47850;50.274;18.908;2022-07-23T05:06:50;21.60;;;13.80;;
61897;SDS011;47850;50.274;18.908;2022-07-23T05:09:17;21.50;;;14.50;;
61897;SDS011;47850;50.274;18.908;2022-07-23T05:11:43;21.90;;;13.90;;
61897;SDS011;47850;50.274;18.908;2022-07-23T05:14:10;24.30;;;13.50;;
61897;SDS011;47850;50.274;18.908;2022-07-23T05:16:38;30.40;;;14.90;;
61897;SDS011;47850;50.274;18.908;2022-07-23T05:19:05;30.60;;;13.90;;
61897;SDS011;47850;50.274;18.908;2022-07-23T05:21:31;28.30;;;14.00;;
61897;SDS011;47850;50.274;18.908;2022-07-23T05:23:58;22.40;;;13.80;;
61897;SDS011;47850;50.274;18.908;2022-07-23T05:26:25;26.80;;;14.00;;
61897;SDS011;47850;50.274;18.908;2022-07-23T05:28:52;19.90;;;12.40;;
61897;SDS011;47850;50.274;18.908;2022-07-23T05:31:18;17.00;;;11.60;;
61897;SDS011;47850;50.274;18.908;2022-07-23T05:33:45;19.80;;;11.40;;
61897;SDS011;47850;50.274;18.908;2022-07-23T05:36:12;18.30;;;11.30;;
61897;SDS011;47850;50.274;18.908;2022-07-23T05:38:38;19.00;;;11.10;;
61897;SDS011;47850;50.274;18.908;2022-07-23T05:41:05;21.30;;;11.60;;
61897;SDS011;47850;50.274;18.908;2022-07-23T05:43:31;18.80;;;11.30;;
61897;SDS011;47850;50.274;18.908;2022-07-23T05:45:58;23.70;;;11.60;;
61897;SDS011;47850;50.274;18.908;2022-07-23T05:48:25;15.30;;;10.50;;
61897;SDS011;47850;50.274;18.908;2022-07-23T05:50:52;27.50;;;11.30;;
61897;SDS011;47850;50.274;18.908;2022-07-23T05:53:18;17.60;;;10.90;;
61897;SDS011;47850;50.274;18.908;2022-07-23T05:55:45;14.90;;;10.70;;
61897;SDS011;47850;50.274;18.908;2022-07-23T05:58:12;18.40;;;11.30;;
61897;SDS011;47850;50.274;18.908;2022-07-23T06:00:38;15.80;;;11.30;;
61897;SDS011;47850;50.274;18.908;2022-07-23T06:03:08;20.20;;;10.80;;
61897;SDS011;47850;50.274;18.908;2022-07-23T06:05:34;14.90;;;11.20;;
61897;SDS011;47850;50.274;18.908;2022-07-23T06:08:01;21.90;;;11.00;;
61897;SDS011;47850;50.274;18.908;2022-07-23T06:10:27;14.10;;;10.70;;
61897;SDS011;47850;50.274;18.908;2022-07-23T06:12:54;25.60;;;11.70;;
61897;SDS011;47850;50.274;18.908;2022-07-23T06:15:20;16.80;;;10.80;;
61897;SDS011;47850;50.274;18.908;2022-07-23T06:17:47;16.20;;;11.20;;
61897;SDS011;47850;50.274;18.908;2022-07-23T06:20:14;17.00;;;11.10;;
61897;SDS011;47850;50.274;18.908;2022-07-23T06:22:40;23.80;;;11.10;;
61897;SDS011;47850;50.274;18.908;2022-07-23T06:25:07;19.70;;;11.50;;
61897;SDS011;47850;50.274;18.908;2022-07-23T06:27:34;24.50;;;12.50;;
61897;SDS011;47850;50.274;18.908;2022-07-23T06:30:00;24.00;;;12.60;;
61897;SDS011;47850;50.274;18.908;2022-07-23T06:32:27;18.40;;;12.10;;
61897;SDS011;47850;50.274;18.908;2022-07-23T06:34:53;19.30;;;12.60;;
61897;SDS011;47850;50.274;18.908;2022-07-23T06:37:20;19.50;;;11.60;;
61897;SDS011;47850;50.274;18.908;2022-07-23T06:39:47;18.60;;;11.20;;
61897;SDS011;47850;50.274;18.908;2022-07-23T06:42:13;289.50;;;20.80;;
61897;SDS011;47850;50.274;18.908;2022-07-23T06:44:41;21.60;;;14.30;;
61897;SDS011;47850;50.274;18.908;2022-07-23T06:47:07;24.20;;;13.20;;
61897;SDS011;47850;50.274;18.908;2022-07-23T06:49:34;22.20;;;12.50;;
61897;SDS011;47850;50.274;18.908;2022-07-23T06:52:01;24.70;;;13.90;;
61897;SDS011;47850;50.274;18.908;2022-07-23T06:54:28;28.30;;;17.10;;
61897;SDS011;47850;50.274;18.908;2022-07-23T06:56:54;21.90;;;13.20;;
61897;SDS011;47850;50.274;18.908;2022-07-23T06:59:21;29.30;;;13.80;;
61897;SDS011;47850;50.274;18.908;2022-07-23T07:01:47;27.40;;;14.60;;
61897;SDS011;47850;50.274;18.908;2022-07-23T07:04:14;21.30;;;12.70;;
61897;SDS011;47850;50.274;18.908;2022-07-23T07:06:40;24.90;;;13.10;;
61897;SDS011;47850;50.274;18.908;2022-07-23T07:09:07;21.40;;;12.40;;
61897;SDS011;47850;50.274;18.908;2022-07-23T07:11:34;25.50;;;12.60;;
61897;SDS011;47850;50.274;18.908;2022-07-23T07:14:01;20.00;;;13.00;;
61897;SDS011;47850;50.274;18.908;2022-07-23T07:16:27;19.80;;;13.10;;
61897;SDS011;47850;50.274;18.908;2022-07-23T07:18:54;24.30;;;12.20;;
61897;SDS011;47850;50.274;18.908;2022-07-23T07:21:20;19.40;;;11.40;;
61897;SDS011;47850;50.274;18.908;2022-07-23T07:23:47;19.10;;;10.20;;
61897;SDS011;47850;50.274;18.908;2022-07-23T07:26:13;17.10;;;11.00;;
61897;SDS011;47850;50.274;18.908;2022-07-23T07:28:40;17.70;;;10.20;;
61897;SDS011;47850;50.274;18.908;2022-07-23T07:31:07;19.70;;;11.00;;
61897;SDS011;47850;50.274;18.908;2022-07-23T07:33:33;27.20;;;12.80;;
61897;SDS011;47850;50.274;18.908;2022-07-23T07:36:00;20.10;;;10.30;;
61897;SDS011;47850;50.274;18.908;2022-07-23T07:38:26;54.70;;;21.40;;
61897;SDS011;47850;50.274;18.908;2022-07-23T07:40:53;23.90;;;11.60;;
61897;SDS011;47850;50.274;18.908;2022-07-23T07:43:19;24.50;;;10.20;;
61897;SDS011;47850;50.274;18.908;2022-07-23T07:45:46;15.10;;;8.50;;
61897;SDS011;47850;50.274;18.908;2022-07-23T07:48:12;14.50;;;9.90;;
61897;SDS011;47850;50.274;18.908;2022-07-23T07:50:39;20.80;;;10.50;;
61897;SDS011;47850;50.274;18.908;2022-07-23T07:53:06;19.60;;;10.10;;
61897;SDS011;47850;50.274;18.908;2022-07-23T07:55:32;19.50;;;10.70;;
61897;SDS011;47850;50.274;18.908;2022-07-23T07:57:59;30.80;;;10.40;;
61897;SDS011;47850;50.274;18.908;2022-07-23T08:00:26;17.20;;;10.20;;
61897;SDS011;47850;50.274;18.908;2022-07-23T08:02:53;21.20;;;10.80;;
61897;SDS011;47850;50.274;18.908;2022-07-23T08:05:21;22.80;;;10.70;;
61897;SDS011;47850;50.274;18.908;2022-07-23T08:07:49;19.00;;;10.40;;
61897;SDS011;47850;50.274;18.908;2022-07-23T08:10:16;18.00;;;10.30;;
61897;SDS011;47850;50.274;18.908;2022-07-23T08:12:44;16.50;;;9.30;;
61897;SDS011;47850;50.274;18.908;2022-07-23T08:15:14;13.10;;;9.20;;
61897;SDS011;47850;50.274;18.908;2022-07-23T08:17:45;17.70;;;9.70;;
61897;SDS011;47850;50.274;18.908;2022-07-23T08:20:13;18.50;;;9.50;;
61897;SDS011;47850;50.274;18.908;2022-07-23T08:22:51;17.70;;;9.70;;
61897;SDS011;47850;50.274;18.908;2022-07-23T08:25:23;70.20;;;11.20;;
61897;SDS011;47850;50.274;18.908;2022-07-23T08:27:52;18.90;;;9.80;;
61897;SDS011;47850;50.274;18.908;2022-07-23T08:30:20;12.90;;;8.20;;
61897;SDS011;47850;50.274;18.908;2022-07-23T08:33:06;13.70;;;7.90;;
61897;SDS011;47850;50.274;18.908;2022-07-23T08:35:37;14.80;;;6.80;;
61897;SDS011;47850;50.274;18.908;2022-07-23T08:38:09;9.40;;;7.00;;
61897;SDS011;47850;50.274;18.908;2022-07-23T08:40:37;11.60;;;6.60;;
61897;SDS011;47850;50.274;18.908;2022-07-23T08:43:09;10.70;;;7.30;;
61897;SDS011;47850;50.274;18.908;2022-07-23T08:45:38;17.30;;;7.20;;
61897;SDS011;47850;50.274;18.908;2022-07-23T08:48:08;8.40;;;5.80;;
61897;SDS011;47850;50.274;18.908;2022-07-23T08:50:39;9.00;;;6.00;;
61897;SDS011;47850;50.274;18.908;2022-07-23T08:53:09;13.60;;;7.30;;
61897;SDS011;47850;50.274;18.908;2022-07-23T08:55:36;17.10;;;6.40;;
61897;SDS011;47850;50.274;18.908;2022-07-23T08:58:03;11.60;;;6.70;;
61897;SDS011;47850;50.274;18.908;2022-07-23T09:00:30;11.50;;;6.10;;
61897;SDS011;47850;50.274;18.908;2022-07-23T09:02:56;10.90;;;6.00;;
61897;SDS011;47850;50.274;18.908;2022-07-23T09:05:23;22.90;;;6.70;;
61897;SDS011;47850;50.274;18.908;2022-07-23T09:08:04;13.10;;;6.70;;
61897;SDS011;47850;50.274;18.908;2022-07-23T09:11:15;11.00;;;6.80;;
61897;SDS011;47850;50.274;18.908;2022-07-23T09:13:27;11.10;;;6.60;;
61897;SDS011;47850;50.274;18.908;2022-07-23T09:21:23;13.80;;;5.80;;
61897;SDS011;47850;50.274;18.908;2022-07-23T09:29:02;11.60;;;5.60;;
61897;SDS011;47850;50.274;18.908;2022-07-23T09:31:47;7.30;;;4.90;;
61897;SDS011;47850;50.274;18.908;2022-07-23T09:34:24;13.40;;;5.00;;
61897;SDS011;47850;50.274;18.908;2022-07-23T09:36:51;10.80;;;5.20;;
61897;SDS011;47850;50.274;18.908;2022-07-23T09:39:30;10.10;;;4.70;;
61897;SDS011;47850;50.274;18.908;2022-07-23T09:41:58;11.80;;;5.20;;
61897;SDS011;47850;50.274;18.908;2022-07-23T09:44:49;11.30;;;6.60;;
61897;SDS011;47850;50.274;18.908;2022-07-23T09:47:18;10.60;;;5.90;;
61897;SDS011;47850;50.274;18.908;2022-07-23T09:52:37;10.30;;;5.50;;
61897;SDS011;47850;50.274;18.908;2022-07-23T09:55:09;7.80;;;4.80;;
61897;SDS011;47850;50.274;18.908;2022-07-23T09:57:36;10.20;;;5.00;;
61897;SDS011;47850;50.274;18.908;2022-07-23T10:00:08;10.10;;;5.00;;
61897;SDS011;47850;50.274;18.908;2022-07-23T10:02:37;9.10;;;5.50;;
61897;SDS011;47850;50.274;18.908;2022-07-23T10:05:05;9.00;;;5.30;;
61897;SDS011;47850;50.274;18.908;2022-07-23T10:07:34;11.80;;;5.10;;
61897;SDS011;47850;50.274;18.908;2022-07-23T10:10:04;10.30;;;4.90;;
61897;SDS011;47850;50.274;18.908;2022-07-23T10:12:32;6.70;;;4.70;;
61897;SDS011;47850;50.274;18.908;2022-07-23T10:15:03;15.70;;;5.30;;
61897;SDS011;47850;50.274;18.908;2022-07-23T10:17:32;9.40;;;4.60;;
61897;SDS011;47850;50.274;18.908;2022-07-23T10:19:59;10.70;;;5.00;;
61897;SDS011;47850;50.274;18.908;2022-07-23T10:22:27;9.70;;;5.00;;
61897;SDS011;47850;50.274;18.908;2022-07-23T10:36:50;6.90;;;4.80;;
61897;SDS011;47850;50.274;18.908;2022-07-23T10:39:22;7.00;;;4.90;;
61897;SDS011;47850;50.274;18.908;2022-07-23T10:41:52;8.90;;;5.10;;
61897;SDS011;47850;50.274;18.908;2022-07-23T10:44:39;10.80;;;4.90;;
61897;SDS011;47850;50.274;18.908;2022-07-23T10:47:08;10.40;;;4.70;;
61897;SDS011;47850;50.274;18.908;2022-07-23T10:49:55;10.20;;;5.10;;
61897;SDS011;47850;50.274;18.908;2022-07-23T10:58:03;8.10;;;5.10;;
61897;SDS011;47850;50.274;18.908;2022-07-23T11:00:31;7.80;;;4.70;;
61897;SDS011;47850;50.274;18.908;2022-07-23T11:03:03;10.30;;;4.40;;
61897;SDS011;47850;50.274;18.908;2022-07-23T11:05:53;10.40;;;5.20;;
61897;SDS011;47850;50.274;18.908;2022-07-23T11:08:20;14.60;;;5.50;;
61897;SDS011;47850;50.274;18.908;2022-07-23T11:10:51;13.90;;;6.00;;
61897;SDS011;47850;50.274;18.908;2022-07-23T11:13:36;17.00;;;5.70;;
61897;SDS011;47850;50.274;18.908;2022-07-23T11:16:22;7.30;;;5.10;;
61897;SDS011;47850;50.274;18.908;2022-07-23T11:18:54;14.50;;;5.50;;
61897;SDS011;47850;50.274;18.908;2022-07-23T11:24:08;10.10;;;5.20;;
61897;SDS011;47850;50.274;18.908;2022-07-23T11:34:44;6.30;;;4.70;;
61897;SDS011;47850;50.274;18.908;2022-07-23T11:37:28;13.80;;;5.00;;
61897;SDS011;47850;50.274;18.908;2022-07-23T11:40:00;8.70;;;5.00;;
61897;SDS011;47850;50.274;18.908;2022-07-23T11:44:55;10.10;;;4.80;;
61897;SDS011;47850;50.274;18.908;2022-07-23T11:47:25;7.60;;;4.60;;
61897;SDS011;47850;50.274;18.908;2022-07-23T11:49:54;8.10;;;5.10;;
61897;SDS011;47850;50.274;18.908;2022-07-23T11:52:32;6.60;;;4.80;;
61897;SDS011;47850;50.274;18.908;2022-07-23T11:55:01;6.30;;;4.80;;
61897;SDS011;47850;50.274;18.908;2022-07-23T11:57:40;6.50;;;4.90;;
61897;SDS011;47850;50.274;18.908;2022-07-23T12:00:15;7.60;;;4.60;;
61897;SDS011;47850;50.274;18.908;2022-07-23T12:02:45;6.90;;;4.30;;
61897;SDS011;47850;50.274;18.908;2022-07-23T12:05:13;6.90;;;4.70;;
61897;SDS011;47850;50.274;18.908;2022-07-23T12:07:42;7.40;;;4.60;;
61897;SDS011;47850;50.274;18.908;2022-07-23T12:12:58;9.00;;;4.70;;
61897;SDS011;47850;50.274;18.908;2022-07-23T12:15:37;6.70;;;4.30;;
61897;SDS011;47850;50.274;18.908;2022-07-23T12:20:34;5.40;;;4.60;;
61897;SDS011;47850;50.274;18.908;2022-07-23T12:23:06;6.40;;;4.30;;
61897;SDS011;47850;50.274;18.908;2022-07-23T12:25:35;12.10;;;4.90;;
61897;SDS011;47850;50.274;18.908;2022-07-23T12:28:08;8.40;;;4.80;;
61897;SDS011;47850;50.274;18.908;2022-07-23T12:30:38;5.00;;;4.40;;
61897;SDS011;47850;50.274;18.908;2022-07-23T12:33:05;7.40;;;4.90;;
61897;SDS011;47850;50.274;18.908;2022-07-23T12:35:37;8.10;;;5.10;;
61897;SDS011;47850;50.274;18.908;2022-07-23T12:38:11;13.10;;;5.30;;
61897;SDS011;47850;50.274;18.908;2022-07-23T12:40:44;12.00;;;5.70;;
61897;SDS011;47850;50.274;18.908;2022-07-23T12:43:31;8.80;;;5.20;;
61897;SDS011;47850;50.274;18.908;2022-07-23T12:46:21;8.80;;;5.10;;
61897;SDS011;47850;50.274;18.908;2022-07-23T12:51:28;12.20;;;5.80;;
61897;SDS011;47850;50.274;18.908;2022-07-23T12:53:58;8.90;;;5.30;;
61897;SDS011;47850;50.274;18.908;2022-07-23T12:56:33;7.60;;;5.50;;
61897;SDS011;47850;50.274;18.908;2022-07-23T13:01:42;14.70;;;5.40;;
61897;SDS011;47850;50.274;18.908;2022-07-23T13:04:21;10.30;;;5.40;;
61897;SDS011;47850;50.274;18.908;2022-07-23T13:07:06;16.40;;;5.70;;
61897;SDS011;47850;50.274;18.908;2022-07-23T13:09:33;12.90;;;5.60;;
61897;SDS011;47850;50.274;18.908;2022-07-23T13:12:00;10.80;;;6.10;;
61897;SDS011;47850;50.274;18.908;2022-07-23T13:14:27;12.60;;;5.40;;
61897;SDS011;47850;50.274;18.908;2022-07-23T13:16:55;11.10;;;5.10;;
61897;SDS011;47850;50.274;18.908;2022-07-23T13:19:22;10.60;;;5.90;;
61897;SDS011;47850;50.274;18.908;2022-07-23T13:21:49;12.80;;;6.50;;
61897;SDS011;47850;50.274;18.908;2022-07-23T13:24:16;12.10;;;5.80;;
61897;SDS011;47850;50.274;18.908;2022-07-23T13:26:42;12.10;;;5.70;;
61897;SDS011;47850;50.274;18.908;2022-07-23T13:29:09;9.30;;;5.00;;
61897;SDS011;47850;50.274;18.908;2022-07-23T13:31:36;11.40;;;5.40;;
61897;SDS011;47850;50.274;18.908;2022-07-23T13:34:04;13.60;;;5.60;;
61897;SDS011;47850;50.274;18.908;2022-07-23T13:36:30;9.20;;;5.40;;
61897;SDS011;47850;50.274;18.908;2022-07-23T13:38:57;7.00;;;5.40;;
61897;SDS011;47850;50.274;18.908;2022-07-23T13:41:24;11.20;;;5.90;;
61897;SDS011;47850;50.274;18.908;2022-07-23T13:43:50;11.70;;;5.20;;
61897;SDS011;47850;50.274;18.908;2022-07-23T13:46:17;5.90;;;5.20;;
61897;SDS011;47850;50.274;18.908;2022-07-23T13:48:43;12.40;;;5.90;;
61897;SDS011;47850;50.274;18.908;2022-07-23T13:51:10;7.80;;;5.20;;
61897;SDS011;47850;50.274;18.908;2022-07-23T13:53:37;15.60;;;5.90;;
61897;SDS011;47850;50.274;18.908;2022-07-23T13:56:04;12.00;;;5.30;;
61897;SDS011;47850;50.274;18.908;2022-07-23T13:58:30;10.20;;;5.20;;
61897;SDS011;47850;50.274;18.908;2022-07-23T14:00:57;18.40;;;6.00;;
61897;SDS011;47850;50.274;18.908;2022-07-23T14:03:23;30.50;;;6.40;;
61897;SDS011;47850;50.274;18.908;2022-07-23T14:05:50;51.70;;;7.00;;
61897;SDS011;47850;50.274;18.908;2022-07-23T14:08:18;49.70;;;7.20;;
61897;SDS011;47850;50.274;18.908;2022-07-23T14:10:45;50.00;;;6.90;;
61897;SDS011;47850;50.274;18.908;2022-07-23T14:13:12;64.10;;;6.80;;
61897;SDS011;47850;50.274;18.908;2022-07-23T14:15:39;47.00;;;6.70;;
61897;SDS011;47850;50.274;18.908;2022-07-23T14:18:07;53.50;;;7.10;;
61897;SDS011;47850;50.274;18.908;2022-07-23T14:20:34;38.80;;;6.60;;
61897;SDS011;47850;50.274;18.908;2022-07-23T14:23:00;44.90;;;9.20;;
61897;SDS011;47850;50.274;18.908;2022-07-23T14:25:27;23.90;;;7.40;;
61897;SDS011;47850;50.274;18.908;2022-07-23T14:27:54;43.40;;;7.70;;
61897;SDS011;47850;50.274;18.908;2022-07-23T14:30:21;25.80;;;6.70;;
61897;SDS011;47850;50.274;18.908;2022-07-23T14:32:49;15.40;;;6.60;;
61897;SDS011;47850;50.274;18.908;2022-07-23T14:35:16;150.70;;;9.90;;
61897;SDS011;47850;50.274;18.908;2022-07-23T14:37:45;18.20;;;5.60;;
61897;SDS011;47850;50.274;18.908;2022-07-23T14:40:11;14.70;;;6.00;;
61897;SDS011;47850;50.274;18.908;2022-07-23T14:42:38;14.90;;;5.90;;
61897;SDS011;47850;50.274;18.908;2022-07-23T14:45:05;60.30;;;6.30;;
61897;SDS011;47850;50.274;18.908;2022-07-23T14:47:32;14.20;;;5.70;;
61897;SDS011;47850;50.274;18.908;2022-07-23T14:49:59;26.20;;;6.00;;
61897;SDS011;47850;50.274;18.908;2022-07-23T14:52:26;69.70;;;7.30;;
61897;SDS011;47850;50.274;18.908;2022-07-23T14:54:52;11.60;;;6.30;;
61897;SDS011;47850;50.274;18.908;2022-07-23T14:57:19;13.50;;;6.40;;
61897;SDS011;47850;50.274;18.908;2022-07-23T14:59:45;11.70;;;6.20;;
61897;SDS011;47850;50.274;18.908;2022-07-23T15:02:12;10.90;;;6.60;;
61897;SDS011;47850;50.274;18.908;2022-07-23T15:04:38;14.00;;;6.40;;
61897;SDS011;47850;50.274;18.908;2022-07-23T15:07:05;12.90;;;6.40;;
61897;SDS011;47850;50.274;18.908;2022-07-23T15:09:32;14.90;;;6.40;;
61897;SDS011;47850;50.274;18.908;2022-07-23T15:11:58;12.40;;;7.10;;
61897;SDS011;47850;50.274;18.908;2022-07-23T15:14:25;10.50;;;7.20;;
61897;SDS011;47850;50.274;18.908;2022-07-23T15:16:51;15.70;;;7.50;;